sensor_id;sensor_type;location;lat;lon;timestamp;pressure;altitude;pressure_sealevel;temperature;humidity
60976;BME280;46849;48.154;17.042;2022-09-30T00:01:14;97821.91;;;10.88;90.38
60976;BME280;46849;48.154;17.042;2022-09-30T00:03:59;97834.03;;;10.89;90.54
60976;BME280;46849;48.154;17.042;2022-09-30T00:06:45;97832.81;;;10.93;90.69
60976;BME280;46849;48.154;17.042;2022-09-30T00:09:29;97832.25;;;10.90;91.06
60976;BME280;46849;48.154;17.042;2022-09-30T00:12:15;97819.00;;;10.91;91.47
60976;BME280;46849;48.154;17.042;2022-09-30T00:14:59;97808.75;;;10.78;91.92
60976;BME280;46849;48.154;17.042;2022-09-30T00:17:44;97807.84;;;10.68;93.14
60976;BME280;46849;48.154;17.042;2022-09-30T00:20:29;97816.94;;;10.64;93.41
60976;BME280;46849;48.154;17.042;2022-09-30T00:23:13;97826.72;;;10.62;94.14
60976;BME280;46849;48.154;17.042;2022-09-30T00:26:00;97817.00;;;10.74;93.37
60976;BME280;46849;48.154;17.042;2022-09-30T00:28:49;97814.94;;;10.77;93.45
60976;BME280;46849;48.154;17.042;2022-09-30T00:31:34;97815.31;;;10.72;93.76
60976;BME280;46849;48.154;17.042;2022-09-30T00:34:19;97802.41;;;10.81;93.38
60976;BME280;46849;48.154;17.042;2022-09-30T00:37:04;97812.44;;;10.76;93.63
60976;BME280;46849;48.154;17.042;2022-09-30T00:39:49;97812.03;;;10.70;94.11
60976;BME280;46849;48.154;17.042;2022-09-30T00:42:33;97818.47;;;10.66;94.67
60976;BME280;46849;48.154;17.042;2022-09-30T00:45:18;97828.16;;;10.76;94.09
60976;BME280;46849;48.154;17.042;2022-09-30T00:48:10;97823.44;;;10.69;94.34
60976;BME280;46849;48.154;17.042;2022-09-30T00:50:56;97827.41;;;10.85;93.72
60976;BME280;46849;48.154;17.042;2022-09-30T00:53:52;97835.75;;;10.79;94.21
60976;BME280;46849;48.154;17.042;2022-09-30T00:56:45;97837.63;;;10.88;93.40
60976;BME280;46849;48.154;17.042;2022-09-30T00:59:40;97830.03;;;10.85;93.96
60976;BME280;46849;48.154;17.042;2022-09-30T01:02:26;97828.47;;;10.82;93.71
60976;BME280;46849;48.154;17.042;2022-09-30T01:05:11;97828.22;;;10.86;94.02
60976;BME280;46849;48.154;17.042;2022-09-30T01:07:59;97832.19;;;10.80;94.32
60976;BME280;46849;48.154;17.042;2022-09-30T01:10:44;97821.84;;;10.78;94.44
60976;BME280;46849;48.154;17.042;2022-09-30T01:13:30;97822.66;;;10.79;94.47
60976;BME280;46849;48.154;17.042;2022-09-30T01:38:09;97809.88;;;10.86;95.55
60976;BME280;46849;48.154;17.042;2022-09-30T01:41:05;97811.81;;;10.83;95.28
60976;BME280;46849;48.154;17.042;2022-09-30T01:43:59;97816.91;;;10.85;95.36
60976;BME280;46849;48.154;17.042;2022-09-30T01:46:58;97817.88;;;10.84;95.61
60976;BME280;46849;48.154;17.042;2022-09-30T01:50:01;97819.81;;;10.92;94.99
60976;BME280;46849;48.154;17.042;2022-09-30T01:53:44;97813.91;;;10.90;95.27
60976;BME280;46849;48.154;17.042;2022-09-30T02:02:01;97823.47;;;11.01;94.64
60976;BME280;46849;48.154;17.042;2022-09-30T02:04:54;97815.41;;;10.92;95.72
60976;BME280;46849;48.154;17.042;2022-09-30T02:07:46;97812.94;;;10.91;97.06
60976;BME280;46849;48.154;17.042;2022-09-30T02:10:34;97807.56;;;10.92;96.67
60976;BME280;46849;48.154;17.042;2022-09-30T02:16:20;97811.34;;;11.00;96.88
60976;BME280;46849;48.154;17.042;2022-09-30T02:19:21;97808.97;;;10.96;96.47
60976;BME280;46849;48.154;17.042;2022-09-30T02:22:20;97806.63;;;10.93;96.77
60976;BME280;46849;48.154;17.042;2022-09-30T02:25:06;97808.94;;;10.87;96.99
60976;BME280;46849;48.154;17.042;2022-09-30T02:27:58;97810.56;;;10.88;96.77
60976;BME280;46849;48.154;17.042;2022-09-30T02:30:47;97808.47;;;10.81;97.32
60976;BME280;46849;48.154;17.042;2022-09-30T02:33:38;97798.56;;;10.85;97.00
60976;BME280;46849;48.154;17.042;2022-09-30T02:39:45;97805.34;;;10.88;97.64
60976;BME280;46849;48.154;17.042;2022-09-30T02:42:32;97812.63;;;10.84;97.84
60976;BME280;46849;48.154;17.042;2022-09-30T02:45:21;97807.19;;;10.76;98.66
60976;BME280;46849;48.154;17.042;2022-09-30T02:48:17;97803.63;;;10.77;99.60
60976;BME280;46849;48.154;17.042;2022-09-30T02:51:15;97815.69;;;10.89;99.00
60976;BME280;46849;48.154;17.042;2022-09-30T02:54:31;97814.97;;;10.87;99.31
60976;BME280;46849;48.154;17.042;2022-09-30T02:57:33;97813.31;;;10.86;99.59
60976;BME280;46849;48.154;17.042;2022-09-30T03:00:18;97815.81;;;10.88;99.89
60976;BME280;46849;48.154;17.042;2022-09-30T03:03:20;97815.41;;;10.92;99.62
60976;BME280;46849;48.154;17.042;2022-09-30T03:06:06;97817.25;;;11.02;99.17
60976;BME280;46849;48.154;17.042;2022-09-30T03:08:51;97813.25;;;10.98;100.00
60976;BME280;46849;48.154;17.042;2022-09-30T03:11:36;97814.97;;;10.87;100.00
60976;BME280;46849;48.154;17.042;2022-09-30T03:14:33;97817.47;;;10.89;100.00
60976;BME280;46849;48.154;17.042;2022-09-30T03:18:03;97821.06;;;10.88;100.00
60976;BME280;46849;48.154;17.042;2022-09-30T03:38:23;97818.78;;;10.52;100.00
60976;BME280;46849;48.154;17.042;2022-09-30T03:41:26;97830.22;;;10.51;100.00
60976;BME280;46849;48.154;17.042;2022-09-30T03:44:20;97827.22;;;10.55;100.00
60976;BME280;46849;48.154;17.042;2022-09-30T03:47:08;97829.03;;;10.43;100.00
60976;BME280;46849;48.154;17.042;2022-09-30T03:49:58;97825.00;;;10.51;100.00
60976;BME280;46849;48.154;17.042;2022-09-30T03:52:44;97824.88;;;10.52;100.00
60976;BME280;46849;48.154;17.042;2022-09-30T03:55:29;97838.25;;;10.38;100.00
60976;BME280;46849;48.154;17.042;2022-09-30T03:58:18;97826.53;;;10.20;100.00
60976;BME280;46849;48.154;17.042;2022-09-30T04:01:03;97832.94;;;10.28;100.00
60976;BME280;46849;48.154;17.042;2022-09-30T04:03:52;97831.13;;;10.28;100.00
60976;BME280;46849;48.154;17.042;2022-09-30T04:06:37;97835.31;;;10.31;100.00
60976;BME280;46849;48.154;17.042;2022-09-30T04:09:21;97833.88;;;10.27;100.00
60976;BME280;46849;48.154;17.042;2022-09-30T04:12:08;97835.03;;;10.34;100.00
60976;BME280;46849;48.154;17.042;2022-09-30T04:14:52;97848.19;;;10.55;100.00
60976;BME280;46849;48.154;17.042;2022-09-30T04:17:37;97844.34;;;10.59;100.00
60976;BME280;46849;48.154;17.042;2022-09-30T04:20:22;97847.78;;;10.60;100.00
60976;BME280;46849;48.154;17.042;2022-09-30T04:23:06;97846.19;;;10.69;100.00
60976;BME280;46849;48.154;17.042;2022-09-30T04:25:58;97848.03;;;10.78;100.00
60976;BME280;46849;48.154;17.042;2022-09-30T04:28:42;97843.94;;;10.64;100.00
60976;BME280;46849;48.154;17.042;2022-09-30T04:31:27;97843.25;;;10.62;100.00
60976;BME280;46849;48.154;17.042;2022-09-30T04:34:12;97847.13;;;10.46;100.00
60976;BME280;46849;48.154;17.042;2022-09-30T04:36:58;97846.88;;;10.50;100.00
60976;BME280;46849;48.154;17.042;2022-09-30T04:39:42;97844.78;;;10.65;100.00
60976;BME280;46849;48.154;17.042;2022-09-30T04:42:28;97853.47;;;10.65;100.00
60976;BME280;46849;48.154;17.042;2022-09-30T04:45:13;97850.66;;;10.57;100.00
60976;BME280;46849;48.154;17.042;2022-09-30T04:47:59;97848.38;;;10.85;100.00
60976;BME280;46849;48.154;17.042;2022-09-30T04:50:44;97853.09;;;10.70;100.00
60976;BME280;46849;48.154;17.042;2022-09-30T04:53:29;97856.63;;;10.59;100.00
60976;BME280;46849;48.154;17.042;2022-09-30T04:56:17;97854.19;;;10.67;100.00
60976;BME280;46849;48.154;17.042;2022-09-30T04:59:17;97860.25;;;10.68;100.00
60976;BME280;46849;48.154;17.042;2022-09-30T05:02:02;97861.16;;;10.57;100.00
60976;BME280;46849;48.154;17.042;2022-09-30T05:04:53;97862.47;;;10.51;100.00
60976;BME280;46849;48.154;17.042;2022-09-30T05:07:38;97865.34;;;10.48;100.00
60976;BME280;46849;48.154;17.042;2022-09-30T05:10:30;97884.41;;;10.39;100.00
60976;BME280;46849;48.154;17.042;2022-09-30T05:13:16;97889.47;;;10.19;100.00
60976;BME280;46849;48.154;17.042;2022-09-30T05:16:01;97895.44;;;10.21;100.00
60976;BME280;46849;48.154;17.042;2022-09-30T05:18:45;97893.53;;;10.23;100.00
60976;BME280;46849;48.154;17.042;2022-09-30T05:21:30;97901.94;;;10.27;100.00
60976;BME280;46849;48.154;17.042;2022-09-30T05:24:18;97906.59;;;10.23;100.00
60976;BME280;46849;48.154;17.042;2022-09-30T05:27:03;97906.72;;;10.21;100.00
60976;BME280;46849;48.154;17.042;2022-09-30T05:29:47;97910.50;;;10.29;100.00
60976;BME280;46849;48.154;17.042;2022-09-30T05:32:32;97911.22;;;10.31;100.00
60976;BME280;46849;48.154;17.042;2022-09-30T05:35:17;97916.53;;;10.41;100.00
60976;BME280;46849;48.154;17.042;2022-09-30T05:38:02;97912.75;;;10.33;100.00
60976;BME280;46849;48.154;17.042;2022-09-30T05:40:47;97928.41;;;10.12;100.00
60976;BME280;46849;48.154;17.042;2022-09-30T05:43:32;97932.34;;;10.06;100.00
60976;BME280;46849;48.154;17.042;2022-09-30T05:46:18;97938.63;;;10.15;100.00
60976;BME280;46849;48.154;17.042;2022-09-30T05:49:05;97936.22;;;10.23;100.00
60976;BME280;46849;48.154;17.042;2022-09-30T05:51:49;97943.69;;;10.28;100.00
60976;BME280;46849;48.154;17.042;2022-09-30T05:54:34;97944.41;;;10.30;100.00
60976;BME280;46849;48.154;17.042;2022-09-30T05:57:19;97961.84;;;10.41;100.00
60976;BME280;46849;48.154;17.042;2022-09-30T06:00:05;97959.38;;;10.40;100.00
60976;BME280;46849;48.154;17.042;2022-09-30T06:02:56;97968.06;;;10.40;100.00
60976;BME280;46849;48.154;17.042;2022-09-30T06:06:13;97968.78;;;10.42;100.00
60976;BME280;46849;48.154;17.042;2022-09-30T06:09:09;97972.34;;;10.41;100.00
60976;BME280;46849;48.154;17.042;2022-09-30T06:11:54;97977.84;;;10.27;100.00
60976;BME280;46849;48.154;17.042;2022-09-30T06:14:41;97979.66;;;10.26;100.00
60976;BME280;46849;48.154;17.042;2022-09-30T06:17:25;97978.13;;;10.12;100.00
60976;BME280;46849;48.154;17.042;2022-09-30T06:20:10;97982.94;;;9.95;100.00
60976;BME280;46849;48.154;17.042;2022-09-30T06:22:58;97990.53;;;9.98;100.00
60976;BME280;46849;48.154;17.042;2022-09-30T06:25:43;97989.09;;;9.94;100.00
60976;BME280;46849;48.154;17.042;2022-09-30T06:28:28;97994.66;;;10.13;100.00
60976;BME280;46849;48.154;17.042;2022-09-30T06:31:13;97991.09;;;10.14;100.00
60976;BME280;46849;48.154;17.042;2022-09-30T06:33:58;98003.13;;;10.16;100.00
60976;BME280;46849;48.154;17.042;2022-09-30T06:36:44;98012.72;;;10.27;100.00
60976;BME280;46849;48.154;17.042;2022-09-30T06:39:29;98020.94;;;10.34;100.00
60976;BME280;46849;48.154;17.042;2022-09-30T06:42:14;98020.56;;;10.39;100.00
60976;BME280;46849;48.154;17.042;2022-09-30T06:44:59;98024.03;;;10.51;100.00
60976;BME280;46849;48.154;17.042;2022-09-30T06:47:44;98026.63;;;10.39;100.00
60976;BME280;46849;48.154;17.042;2022-09-30T06:50:31;98034.72;;;10.36;100.00
60976;BME280;46849;48.154;17.042;2022-09-30T06:53:16;98039.00;;;10.37;100.00
60976;BME280;46849;48.154;17.042;2022-09-30T06:56:00;98042.69;;;10.46;100.00
60976;BME280;46849;48.154;17.042;2022-09-30T06:58:45;98040.53;;;10.40;100.00
60976;BME280;46849;48.154;17.042;2022-09-30T07:01:30;98044.84;;;10.29;100.00
60976;BME280;46849;48.154;17.042;2022-09-30T07:04:14;98046.03;;;10.25;100.00
60976;BME280;46849;48.154;17.042;2022-09-30T07:06:59;98045.91;;;10.27;100.00
60976;BME280;46849;48.154;17.042;2022-09-30T07:09:43;98048.88;;;10.33;100.00
60976;BME280;46849;48.154;17.042;2022-09-30T07:12:28;98051.63;;;10.32;100.00
60976;BME280;46849;48.154;17.042;2022-09-30T07:15:12;98057.34;;;10.37;100.00
60976;BME280;46849;48.154;17.042;2022-09-30T07:17:57;98060.69;;;10.39;100.00
60976;BME280;46849;48.154;17.042;2022-09-30T07:20:47;98059.72;;;10.29;100.00
60976;BME280;46849;48.154;17.042;2022-09-30T07:23:31;98064.72;;;10.32;100.00
60976;BME280;46849;48.154;17.042;2022-09-30T07:26:20;98069.13;;;10.31;100.00
60976;BME280;46849;48.154;17.042;2022-09-30T07:29:05;98072.09;;;10.50;100.00
60976;BME280;46849;48.154;17.042;2022-09-30T07:31:50;98071.25;;;10.61;100.00
60976;BME280;46849;48.154;17.042;2022-09-30T07:34:35;98077.53;;;10.69;100.00
60976;BME280;46849;48.154;17.042;2022-09-30T07:37:20;98084.47;;;10.70;100.00
60976;BME280;46849;48.154;17.042;2022-09-30T07:40:06;98087.31;;;10.67;100.00
60976;BME280;46849;48.154;17.042;2022-09-30T07:42:51;98090.31;;;10.51;100.00
60976;BME280;46849;48.154;17.042;2022-09-30T07:45:37;98087.94;;;10.48;100.00
60976;BME280;46849;48.154;17.042;2022-09-30T07:48:22;98096.25;;;10.53;100.00
60976;BME280;46849;48.154;17.042;2022-09-30T07:51:34;98096.97;;;10.67;100.00
60976;BME280;46849;48.154;17.042;2022-09-30T07:54:21;98102.78;;;10.82;100.00
60976;BME280;46849;48.154;17.042;2022-09-30T07:57:07;98099.06;;;10.84;100.00
60976;BME280;46849;48.154;17.042;2022-09-30T07:59:52;98102.03;;;10.91;100.00
60976;BME280;46849;48.154;17.042;2022-09-30T08:02:37;98103.47;;;11.17;100.00
60976;BME280;46849;48.154;17.042;2022-09-30T08:05:23;98105.47;;;11.25;100.00
60976;BME280;46849;48.154;17.042;2022-09-30T08:08:08;98103.81;;;11.24;100.00
60976;BME280;46849;48.154;17.042;2022-09-30T08:10:57;98118.31;;;11.28;100.00
60976;BME280;46849;48.154;17.042;2022-09-30T08:13:42;98126.84;;;11.41;100.00
60976;BME280;46849;48.154;17.042;2022-09-30T08:16:27;98128.09;;;11.58;100.00
60976;BME280;46849;48.154;17.042;2022-09-30T08:19:19;98133.75;;;11.64;100.00
60976;BME280;46849;48.154;17.042;2022-09-30T08:22:05;98133.94;;;11.51;100.00
60976;BME280;46849;48.154;17.042;2022-09-30T08:24:53;98134.34;;;11.13;100.00
60976;BME280;46849;48.154;17.042;2022-09-30T08:27:59;98145.31;;;11.07;100.00
60976;BME280;46849;48.154;17.042;2022-09-30T08:30:44;98147.09;;;11.18;100.00
60976;BME280;46849;48.154;17.042;2022-09-30T08:33:28;98147.38;;;11.36;100.00
60976;BME280;46849;48.154;17.042;2022-09-30T08:36:18;98154.84;;;11.41;100.00
60976;BME280;46849;48.154;17.042;2022-09-30T08:39:02;98155.25;;;11.57;100.00
60976;BME280;46849;48.154;17.042;2022-09-30T08:45:35;98171.09;;;11.89;100.00
60976;BME280;46849;48.154;17.042;2022-09-30T08:51:43;98177.34;;;11.55;100.00
60976;BME280;46849;48.154;17.042;2022-09-30T08:54:31;98177.94;;;11.80;100.00
60976;BME280;46849;48.154;17.042;2022-09-30T08:57:19;98186.56;;;11.92;100.00
60976;BME280;46849;48.154;17.042;2022-09-30T09:00:06;98181.84;;;11.86;100.00
60976;BME280;46849;48.154;17.042;2022-09-30T09:02:55;98188.84;;;11.64;100.00
60976;BME280;46849;48.154;17.042;2022-09-30T09:05:51;98195.88;;;11.75;100.00
60976;BME280;46849;48.154;17.042;2022-09-30T09:17:55;98184.94;;;11.91;100.00
60976;BME280;46849;48.154;17.042;2022-09-30T09:20:49;98171.91;;;11.68;100.00
60976;BME280;46849;48.154;17.042;2022-09-30T09:23:37;98176.22;;;11.90;100.00
60976;BME280;46849;48.154;17.042;2022-09-30T09:26:23;98162.03;;;12.97;100.00
60976;BME280;46849;48.154;17.042;2022-09-30T09:32:29;98176.75;;;14.36;92.44
60976;BME280;46849;48.154;17.042;2022-09-30T09:35:20;98179.69;;;13.55;100.00
60976;BME280;46849;48.154;17.042;2022-09-30T09:38:30;98180.53;;;15.18;94.78
60976;BME280;46849;48.154;17.042;2022-09-30T09:47:04;98189.94;;;13.88;93.72
60976;BME280;46849;48.154;17.042;2022-09-30T09:49:59;98200.38;;;14.28;100.00
60976;BME280;46849;48.154;17.042;2022-09-30T09:55:52;98205.22;;;15.45;95.45
60976;BME280;46849;48.154;17.042;2022-09-30T09:58:41;98213.59;;;15.22;84.57
60976;BME280;46849;48.154;17.042;2022-09-30T10:01:51;98209.59;;;15.36;91.12
60976;BME280;46849;48.154;17.042;2022-09-30T10:04:46;98207.38;;;15.86;89.09
60976;BME280;46849;48.154;17.042;2022-09-30T10:07:34;98212.97;;;16.55;86.70
60976;BME280;46849;48.154;17.042;2022-09-30T10:10:19;98208.97;;;16.24;88.25
60976;BME280;46849;48.154;17.042;2022-09-30T10:13:04;98202.53;;;16.45;84.32
60976;BME280;46849;48.154;17.042;2022-09-30T10:15:52;98197.66;;;15.50;88.05
60976;BME280;46849;48.154;17.042;2022-09-30T10:18:39;98205.88;;;15.11;97.74
60976;BME280;46849;48.154;17.042;2022-09-30T10:21:27;98210.84;;;15.87;97.69
60976;BME280;46849;48.154;17.042;2022-09-30T10:24:29;98234.94;;;15.29;88.69
60976;BME280;46849;48.154;17.042;2022-09-30T10:27:31;98252.50;;;14.72;89.25
60976;BME280;46849;48.154;17.042;2022-09-30T10:30:30;98259.69;;;15.18;88.63
60976;BME280;46849;48.154;17.042;2022-09-30T10:33:23;98270.59;;;15.05;93.14
60976;BME280;46849;48.154;17.042;2022-09-30T10:36:18;98275.41;;;15.10;92.46
60976;BME280;46849;48.154;17.042;2022-09-30T10:39:08;98271.88;;;15.01;94.85
60976;BME280;46849;48.154;17.042;2022-09-30T10:42:17;98271.06;;;15.83;87.43
60976;BME280;46849;48.154;17.042;2022-09-30T10:45:34;98273.06;;;16.44;81.86
60976;BME280;46849;48.154;17.042;2022-09-30T10:48:23;98292.78;;;14.54;86.71
60976;BME280;46849;48.154;17.042;2022-09-30T10:51:22;98294.69;;;12.83;96.95
60976;BME280;46849;48.154;17.042;2022-09-30T10:57:24;98287.28;;;12.24;100.00
60976;BME280;46849;48.154;17.042;2022-09-30T11:00:15;98285.19;;;12.17;100.00
60976;BME280;46849;48.154;17.042;2022-09-30T11:03:09;98295.63;;;11.96;100.00
60976;BME280;46849;48.154;17.042;2022-09-30T11:05:56;98311.44;;;12.17;100.00
60976;BME280;46849;48.154;17.042;2022-09-30T11:12:10;98325.47;;;12.49;100.00
60976;BME280;46849;48.154;17.042;2022-09-30T11:15:05;98329.63;;;12.52;100.00
60976;BME280;46849;48.154;17.042;2022-09-30T11:18:07;98322.47;;;12.85;100.00
60976;BME280;46849;48.154;17.042;2022-09-30T11:21:02;98315.13;;;12.79;100.00
60976;BME280;46849;48.154;17.042;2022-09-30T11:23:56;98329.22;;;12.78;100.00
60976;BME280;46849;48.154;17.042;2022-09-30T11:41:32;98362.38;;;12.48;100.00
60976;BME280;46849;48.154;17.042;2022-09-30T11:44:33;98377.34;;;12.36;100.00
60976;BME280;46849;48.154;17.042;2022-09-30T11:50:27;98375.84;;;12.54;100.00
60976;BME280;46849;48.154;17.042;2022-09-30T11:53:33;98378.53;;;12.64;100.00
60976;BME280;46849;48.154;17.042;2022-09-30T11:56:30;98381.41;;;12.61;100.00
60976;BME280;46849;48.154;17.042;2022-09-30T11:59:23;98372.75;;;12.71;100.00
60976;BME280;46849;48.154;17.042;2022-09-30T12:02:33;98382.16;;;12.94;100.00
60976;BME280;46849;48.154;17.042;2022-09-30T12:11:51;98363.81;;;13.04;96.30
60976;BME280;46849;48.154;17.042;2022-09-30T12:17:30;98376.16;;;13.45;91.01
60976;BME280;46849;48.154;17.042;2022-09-30T12:20:26;98372.03;;;13.94;89.19
60976;BME280;46849;48.154;17.042;2022-09-30T12:23:25;98377.38;;;13.72;95.51
60976;BME280;46849;48.154;17.042;2022-09-30T12:26:15;98385.47;;;14.10;91.71
60976;BME280;46849;48.154;17.042;2022-09-30T12:29:05;98374.94;;;14.20;87.86
60976;BME280;46849;48.154;17.042;2022-09-30T12:32:39;98380.78;;;16.06;89.18
60976;BME280;46849;48.154;17.042;2022-09-30T12:35:55;98382.31;;;15.14;80.58
60976;BME280;46849;48.154;17.042;2022-09-30T12:39:09;98392.88;;;15.14;84.22
60976;BME280;46849;48.154;17.042;2022-09-30T12:47:58;98397.06;;;13.47;91.24
60976;BME280;46849;48.154;17.042;2022-09-30T12:50:48;98408.66;;;13.65;89.19
60976;BME280;46849;48.154;17.042;2022-09-30T12:53:37;98411.34;;;13.44;90.84
60976;BME280;46849;48.154;17.042;2022-09-30T12:56:26;98409.19;;;13.28;93.38
60976;BME280;46849;48.154;17.042;2022-09-30T12:59:12;98409.97;;;13.18;92.76
60976;BME280;46849;48.154;17.042;2022-09-30T13:01:59;98409.91;;;13.40;93.13
60976;BME280;46849;48.154;17.042;2022-09-30T13:04:46;98414.94;;;13.84;91.55
60976;BME280;46849;48.154;17.042;2022-09-30T13:07:33;98413.84;;;13.87;91.42
60976;BME280;46849;48.154;17.042;2022-09-30T13:10:25;98408.34;;;14.00;89.87
60976;BME280;46849;48.154;17.042;2022-09-30T13:15:55;98426.38;;;13.32;89.92
60976;BME280;46849;48.154;17.042;2022-09-30T13:21:31;98449.16;;;13.43;91.79
60976;BME280;46849;48.154;17.042;2022-09-30T13:24:15;98442.31;;;13.40;90.99
60976;BME280;46849;48.154;17.042;2022-09-30T13:27:07;98453.28;;;13.14;91.57
60976;BME280;46849;48.154;17.042;2022-09-30T13:38:38;98456.78;;;13.87;86.92
60976;BME280;46849;48.154;17.042;2022-09-30T13:41:24;98456.47;;;13.71;86.97
60976;BME280;46849;48.154;17.042;2022-09-30T13:44:43;98461.06;;;14.99;87.04
60976;BME280;46849;48.154;17.042;2022-09-30T13:47:42;98460.47;;;15.25;82.69
60976;BME280;46849;48.154;17.042;2022-09-30T13:50:39;98466.50;;;16.11;83.86
60976;BME280;46849;48.154;17.042;2022-09-30T13:53:49;98460.75;;;15.98;78.42
60976;BME280;46849;48.154;17.042;2022-09-30T13:56:37;98456.94;;;16.47;80.92
60976;BME280;46849;48.154;17.042;2022-09-30T13:59:48;98438.16;;;17.40;70.46
60976;BME280;46849;48.154;17.042;2022-09-30T14:06:06;98438.22;;;15.66;76.64
60976;BME280;46849;48.154;17.042;2022-09-30T14:18:23;98436.03;;;16.54;74.03
60976;BME280;46849;48.154;17.042;2022-09-30T14:24:20;98436.13;;;15.97;74.47
60976;BME280;46849;48.154;17.042;2022-09-30T14:30:22;98443.56;;;16.85;71.28
60976;BME280;46849;48.154;17.042;2022-09-30T14:33:10;98442.22;;;16.44;72.25
60976;BME280;46849;48.154;17.042;2022-09-30T14:35:59;98449.19;;;16.27;73.89
60976;BME280;46849;48.154;17.042;2022-09-30T14:39:19;98440.66;;;15.77;74.49
60976;BME280;46849;48.154;17.042;2022-09-30T14:42:12;98440.94;;;16.12;75.27
60976;BME280;46849;48.154;17.042;2022-09-30T14:45:02;98439.13;;;15.84;76.24
60976;BME280;46849;48.154;17.042;2022-09-30T14:47:50;98432.94;;;16.22;75.29
60976;BME280;46849;48.154;17.042;2022-09-30T14:50:46;98432.19;;;16.48;74.13
60976;BME280;46849;48.154;17.042;2022-09-30T14:53:50;98428.31;;;16.79;74.18
60976;BME280;46849;48.154;17.042;2022-09-30T14:56:39;98435.22;;;16.98;72.06
60976;BME280;46849;48.154;17.042;2022-09-30T14:59:30;98443.72;;;16.83;73.85
60976;BME280;46849;48.154;17.042;2022-09-30T15:02:17;98446.53;;;16.27;74.37
60976;BME280;46849;48.154;17.042;2022-09-30T15:05:05;98445.41;;;16.30;76.46
60976;BME280;46849;48.154;17.042;2022-09-30T15:07:50;98449.84;;;16.29;75.91
60976;BME280;46849;48.154;17.042;2022-09-30T15:10:36;98447.81;;;16.23;75.67
60976;BME280;46849;48.154;17.042;2022-09-30T15:13:27;98458.91;;;16.27;77.63
60976;BME280;46849;48.154;17.042;2022-09-30T15:16:23;98465.06;;;15.99;76.22
60976;BME280;46849;48.154;17.042;2022-09-30T15:19:17;98471.75;;;15.65;77.62
60976;BME280;46849;48.154;17.042;2022-09-30T15:22:05;98479.91;;;15.62;79.33
60976;BME280;46849;48.154;17.042;2022-09-30T15:24:50;98481.06;;;15.59;79.68
60976;BME280;46849;48.154;17.042;2022-09-30T15:27:36;98480.66;;;15.54;81.84
60976;BME280;46849;48.154;17.042;2022-09-30T15:30:24;98479.34;;;15.30;81.06
60976;BME280;46849;48.154;17.042;2022-09-30T15:33:16;98478.81;;;15.17;82.52
60976;BME280;46849;48.154;17.042;2022-09-30T15:36:04;98483.16;;;15.08;82.50
60976;BME280;46849;48.154;17.042;2022-09-30T15:38:50;98477.16;;;14.76;82.41
60976;BME280;46849;48.154;17.042;2022-09-30T15:41:39;98474.09;;;14.61;84.76
60976;BME280;46849;48.154;17.042;2022-09-30T15:44:36;98470.22;;;14.35;85.50
60976;BME280;46849;48.154;17.042;2022-09-30T15:47:21;98468.66;;;14.13;86.67
60976;BME280;46849;48.154;17.042;2022-09-30T15:53:27;98471.00;;;14.16;90.56
60976;BME280;46849;48.154;17.042;2022-09-30T15:56:24;98480.81;;;14.04;90.70
60976;BME280;46849;48.154;17.042;2022-09-30T15:59:11;98487.34;;;14.00;89.84
60976;BME280;46849;48.154;17.042;2022-09-30T16:01:56;98490.09;;;13.98;89.79
60976;BME280;46849;48.154;17.042;2022-09-30T16:04:41;98489.28;;;14.08;89.12
60976;BME280;46849;48.154;17.042;2022-09-30T16:07:29;98493.06;;;14.15;88.07
60976;BME280;46849;48.154;17.042;2022-09-30T16:10:18;98490.69;;;14.12;89.05
60976;BME280;46849;48.154;17.042;2022-09-30T16:13:13;98500.59;;;13.88;90.67
60976;BME280;46849;48.154;17.042;2022-09-30T16:16:01;98496.72;;;13.92;90.13
60976;BME280;46849;48.154;17.042;2022-09-30T16:18:47;98502.53;;;13.86;91.45
60976;BME280;46849;48.154;17.042;2022-09-30T16:21:42;98506.50;;;13.71;92.44
60976;BME280;46849;48.154;17.042;2022-09-30T16:27:25;98510.03;;;13.60;93.53
60976;BME280;46849;48.154;17.042;2022-09-30T16:30:15;98517.66;;;13.63;94.62
60976;BME280;46849;48.154;17.042;2022-09-30T16:33:03;98515.75;;;13.65;94.37
60976;BME280;46849;48.154;17.042;2022-09-30T16:35:49;98517.91;;;13.60;93.55
60976;BME280;46849;48.154;17.042;2022-09-30T16:38:34;98514.22;;;13.62;94.07
60976;BME280;46849;48.154;17.042;2022-09-30T16:41:19;98528.75;;;13.45;93.11
60976;BME280;46849;48.154;17.042;2022-09-30T16:44:04;98526.78;;;13.37;93.95
60976;BME280;46849;48.154;17.042;2022-09-30T16:46:49;98523.69;;;13.32;94.33
60976;BME280;46849;48.154;17.042;2022-09-30T16:49:34;98528.50;;;13.27;94.76
60976;BME280;46849;48.154;17.042;2022-09-30T16:52:20;98530.97;;;13.18;95.17
60976;BME280;46849;48.154;17.042;2022-09-30T16:55:05;98538.28;;;13.15;96.15
60976;BME280;46849;48.154;17.042;2022-09-30T16:57:50;98541.66;;;13.27;95.52
60976;BME280;46849;48.154;17.042;2022-09-30T17:00:39;98544.75;;;13.32;96.13
60976;BME280;46849;48.154;17.042;2022-09-30T17:03:26;98543.88;;;13.22;96.44
60976;BME280;46849;48.154;17.042;2022-09-30T17:06:12;98542.44;;;13.17;97.42
60976;BME280;46849;48.154;17.042;2022-09-30T17:08:58;98546.81;;;13.07;95.65
60976;BME280;46849;48.154;17.042;2022-09-30T17:11:45;98562.44;;;13.09;95.07
60976;BME280;46849;48.154;17.042;2022-09-30T17:14:30;98563.59;;;13.16;95.53
60976;BME280;46849;48.154;17.042;2022-09-30T17:17:15;98566.69;;;13.21;96.48
60976;BME280;46849;48.154;17.042;2022-09-30T17:19:59;98552.44;;;13.24;94.73
60976;BME280;46849;48.154;17.042;2022-09-30T17:22:44;98561.69;;;13.18;96.60